Time;durP1;ratioP1;P1;durP2;ratioP2;P2;SDS_P1;SDS_P2;PMS_P1;PMS_P2;Temp;Humidity;BMP_temperature;BMP_pressure;BME280_temperature;BME280_humidity;BME280_pressure;Samples;Min_cycle;Max_cycle;Signal;HPM_P1;HPM_P2
2022/06/16 00:01:48;;;;;;;3.85;2.20;;;14.50;99.90;;;;;;4989626;28;20011;-72
2022/06/16 00:04:13;;;;;;;9.15;2.90;;;14.50;99.90;;;;;;4990490;28;20041;-72
2022/06/16 00:06:39;;;;;;;6.00;2.95;;;14.50;99.90;;;;;;4989750;28;20056;-72
2022/06/16 00:09:05;;;;;;;9.05;2.55;;;14.50;99.90;;;;;;4995254;28;20033;-72
2022/06/16 00:11:31;;;;;;;6.75;2.88;;;14.50;99.90;;;;;;4991692;28;20090;-72
2022/06/16 00:13:57;;;;;;;6.85;2.67;;;14.40;99.90;;;;;;4993532;28;20033;-72
2022/06/16 00:16:23;;;;;;;7.25;2.83;;;14.50;99.90;;;;;;4991594;28;20395;-72
2022/06/16 00:18:49;;;;;;;6.40;2.42;;;14.50;99.90;;;;;;4990507;28;20058;-72
2022/06/16 00:21:16;;;;;;;6.35;2.70;;;14.50;99.90;;;;;;4988234;28;20027;-72
2022/06/16 00:23:42;;;;;;;3.95;2.45;;;14.40;99.90;;;;;;4986515;28;20033;-72
2022/06/16 00:26:19;;;;;;;4.97;2.55;;;14.40;99.90;;;;;;4989112;28;20046;-71
2022/06/16 00:28:48;;;;;;;4.03;2.70;;;14.50;99.90;;;;;;4987488;28;20026;-72
2022/06/16 00:31:17;;;;;;;8.88;2.78;;;14.40;99.90;;;;;;4990794;28;20090;-73
2022/06/16 00:33:44;;;;;;;5.43;2.70;;;14.40;99.90;;;;;;4988388;28;20464;-72
2022/06/16 00:36:11;;;;;;;6.50;2.35;;;14.40;99.90;;;;;;4986808;28;20034;-72
2022/06/16 00:38:37;;;;;;;7.68;2.65;;;14.40;99.90;;;;;;4987708;28;20030;-72
2022/06/16 00:41:03;;;;;;;7.80;2.70;;;14.40;99.90;;;;;;4984467;28;20042;-73
2022/06/16 00:43:28;;;;;;;4.60;2.28;;;14.30;99.90;;;;;;4986834;28;20469;-73
2022/06/16 00:46:15;;;;;;;7.75;2.67;;;14.30;99.90;;;;;;4986162;28;20434;-73
2022/06/16 00:48:49;;;;;;;4.43;2.80;;;14.30;99.90;;;;;;4987478;28;20062;-72
2022/06/16 00:51:18;;;;;;;7.32;3.17;;;14.20;99.90;;;;;;4989525;28;20026;-73
2022/06/16 00:53:45;;;;;;;4.75;2.58;;;14.20;99.90;;;;;;4989933;28;20027;-73
2022/06/16 00:56:16;;;;;;;5.45;3.00;;;14.20;99.90;;;;;;4985707;28;20054;-73
2022/06/16 00:58:48;;;;;;;3.80;2.10;;;14.20;99.90;;;;;;4987039;28;20025;-72
2022/06/16 01:01:18;;;;;;;8.35;2.90;;;14.20;99.90;;;;;;4988445;28;20046;-72
2022/06/16 01:06:30;;;;;;;5.53;2.83;;;14.10;99.90;;;;;;4988665;28;20057;-73
2022/06/16 01:09:03;;;;;;;9.07;2.40;;;14.00;99.90;;;;;;4990211;28;20527;-73
2022/06/16 01:14:48;;;;;;;5.30;2.80;;;14.00;99.90;;;;;;4986576;28;20030;-73
2022/06/16 01:17:56;;;;;;;5.40;2.42;;;13.90;99.90;;;;;;4987680;28;20019;-73
2022/06/16 01:20:47;;;;;;;5.35;2.80;;;13.90;99.90;;;;;;4988286;28;20035;-73
2022/06/16 01:23:31;;;;;;;7.97;2.97;;;13.90;99.90;;;;;;4985401;28;20554;-73
2022/06/16 01:26:38;;;;;;;7.95;3.40;;;13.90;99.90;;;;;;4988883;28;20034;-73
2022/06/16 01:29:33;;;;;;;5.90;3.00;;;13.80;99.90;;;;;;4972401;28;20059;-72
2022/06/16 01:32:24;;;;;;;5.65;2.55;;;13.80;99.90;;;;;;4987946;28;20094;-72
2022/06/16 01:35:00;;;;;;;5.07;3.10;;;13.80;99.90;;;;;;4986019;28;20026;-72
2022/06/16 01:37:42;;;;;;;8.45;2.85;;;13.90;99.90;;;;;;4991945;28;20053;-73
2022/06/16 01:40:28;;;;;;;6.28;2.92;;;13.80;99.90;;;;;;4987001;28;20026;-73
2022/06/16 01:43:11;;;;;;;4.88;2.95;;;13.80;99.90;;;;;;4985993;28;20074;-73
2022/06/16 01:45:42;;;;;;;7.05;2.70;;;13.80;99.90;;;;;;4983346;28;20050;-73
2022/06/16 01:48:11;;;;;;;7.40;3.20;;;13.70;99.90;;;;;;4986169;28;20457;-73
2022/06/16 01:50:45;;;;;;;11.65;3.50;;;13.70;99.90;;;;;;4987220;28;20023;-73
2022/06/16 01:53:19;;;;;;;5.53;2.47;;;13.70;99.90;;;;;;4984618;28;20022;-73
2022/06/16 01:55:53;;;;;;;7.45;2.97;;;13.70;99.90;;;;;;4986104;28;20097;-71
2022/06/16 01:58:27;;;;;;;6.28;3.40;;;13.60;99.90;;;;;;4983929;28;20385;-71
2022/06/16 02:00:58;;;;;;;6.07;2.83;;;13.60;99.90;;;;;;4986108;28;20027;-72
2022/06/16 02:03:27;;;;;;;6.57;2.72;;;13.60;99.90;;;;;;4988454;28;20027;-73
2022/06/16 02:06:09;;;;;;;9.30;3.80;;;13.60;99.90;;;;;;4986798;28;20034;-73
2022/06/16 02:08:45;;;;;;;6.45;3.38;;;13.60;99.90;;;;;;4989746;28;20028;-72
2022/06/16 02:11:29;;;;;;;6.82;2.88;;;13.60;99.90;;;;;;4988420;28;20530;-72
2022/06/16 02:14:11;;;;;;;6.50;2.85;;;13.50;99.90;;;;;;4985679;28;20030;-72
2022/06/16 02:16:38;;;;;;;6.43;3.10;;;13.50;99.90;;;;;;4984359;28;20034;-72
2022/06/16 02:19:09;;;;;;;4.55;3.15;;;13.40;99.90;;;;;;4983882;28;20102;-72
2022/06/16 02:21:37;;;;;;;7.28;2.95;;;13.40;99.90;;;;;;4977918;28;20023;-72
2022/06/16 02:24:05;;;;;;;6.50;3.10;;;13.40;99.90;;;;;;4975931;28;20031;-72
2022/06/16 02:26:31;;;;;;;6.45;3.20;;;13.40;99.90;;;;;;4983588;28;20392;-72
2022/06/16 02:29:00;;;;;;;4.38;3.20;;;13.40;99.90;;;;;;4982235;28;20091;-73
2022/06/16 02:31:39;;;;;;;9.57;3.42;;;13.40;99.90;;;;;;4982388;28;20027;-72
2022/06/16 02:34:37;;;;;;;4.43;2.70;;;13.40;99.90;;;;;;4980815;28;20058;-72
2022/06/16 02:37:11;;;;;;;8.27;3.45;;;13.40;99.90;;;;;;4977633;28;20043;-71
2022/06/16 02:39:45;;;;;;;5.85;2.88;;;13.30;99.90;;;;;;4976333;28;20444;-74
2022/06/16 02:42:53;;;;;;;8.02;2.90;;;13.30;99.90;;;;;;4977985;28;20030;-73
2022/06/16 02:45:54;;;;;;;5.68;3.20;;;13.30;99.90;;;;;;4978168;28;20122;-72
2022/06/16 02:48:33;;;;;;;9.65;3.38;;;13.30;99.90;;;;;;4980941;28;20098;-73
2022/06/16 02:51:33;;;;;;;8.95;3.53;;;13.20;99.90;;;;;;4981951;28;20019;-73
2022/06/16 02:54:20;;;;;;;9.88;3.13;;;13.30;99.90;;;;;;4977044;28;20570;-73
2022/06/16 02:56:58;;;;;;;6.85;3.13;;;13.20;99.90;;;;;;4978787;28;20076;-73
2022/06/16 02:59:47;;;;;;;11.65;3.90;;;13.30;99.90;;;;;;4978411;28;20058;-73
2022/06/16 03:02:19;;;;;;;10.68;3.92;;;13.20;99.90;;;;;;4978070;28;20023;-73
2022/06/16 03:04:49;;;;;;;15.18;4.45;;;13.30;99.90;;;;;;4978717;28;20018;-72
2022/06/16 03:07:15;;;;;;;9.43;3.92;;;13.30;99.90;;;;;;4978438;28;20054;-73
2022/06/16 03:09:41;;;;;;;6.85;3.92;;;13.30;99.90;;;;;;4979620;28;20054;-72
2022/06/16 03:12:09;;;;;;;6.15;3.25;;;13.40;99.90;;;;;;4979474;28;20388;-73
2022/06/16 03:14:35;;;;;;;5.53;3.25;;;13.30;99.90;;;;;;4979247;28;20041;-72
2022/06/16 03:17:02;;;;;;;7.22;3.25;;;13.40;99.90;;;;;;4978177;28;20400;-73
2022/06/16 03:19:28;;;;;;;8.45;3.35;;;13.40;99.90;;;;;;4978004;28;20027;-73
2022/06/16 03:21:57;;;;;;;8.75;3.65;;;13.40;99.90;;;;;;4979860;28;20102;-72
2022/06/16 03:24:23;;;;;;;12.77;3.67;;;13.30;99.90;;;;;;4980095;28;20035;-73
2022/06/16 03:26:49;;;;;;;9.68;3.53;;;13.30;99.90;;;;;;4979546;28;20023;-72
2022/06/16 03:29:15;;;;;;;9.90;4.03;;;13.20;99.90;;;;;;4983230;28;20227;-71
2022/06/16 03:31:41;;;;;;;6.90;3.55;;;13.30;99.90;;;;;;4981063;28;20034;-71
2022/06/16 03:34:07;;;;;;;17.63;3.95;;;13.30;99.90;;;;;;4978364;28;20035;-72
2022/06/16 03:36:35;;;;;;;6.10;3.40;;;13.30;99.90;;;;;;4975983;28;20050;-72
2022/06/16 03:39:01;;;;;;;8.18;3.72;;;13.30;99.90;;;;;;4975952;28;20027;-72
2022/06/16 03:41:27;;;;;;;7.68;3.63;;;13.30;99.90;;;;;;4975241;28;20033;-72
2022/06/16 03:43:53;;;;;;;8.77;3.75;;;13.30;99.90;;;;;;4976758;28;20396;-72
2022/06/16 03:46:19;;;;;;;13.45;3.58;;;13.40;99.90;;;;;;4977460;28;20380;-72
2022/06/16 03:48:44;;;;;;;5.95;3.60;;;13.30;99.90;;;;;;4976796;28;20481;-71
2022/06/16 03:51:10;;;;;;;8.38;3.85;;;13.40;99.90;;;;;;4979716;28;20085;-72
2022/06/16 03:53:36;;;;;;;6.50;3.53;;;13.40;99.90;;;;;;4985339;28;20034;-72
2022/06/16 03:56:03;;;;;;;5.85;3.50;;;13.40;99.90;;;;;;4985626;28;20023;-72
2022/06/16 03:58:29;;;;;;;5.05;3.65;;;13.50;99.90;;;;;;4981697;28;20034;-72
2022/06/16 04:00:54;;;;;;;5.32;3.90;;;13.50;99.90;;;;;;4980926;28;20026;-72
2022/06/16 04:06:04;;;;;;;7.50;4.05;;;13.50;99.90;;;;;;4982135;28;20050;-71
2022/06/16 04:08:30;;;;;;;6.43;3.42;;;13.50;99.90;;;;;;4980083;28;20031;-72
2022/06/16 04:10:56;;;;;;;11.13;4.65;;;13.50;99.90;;;;;;4982482;28;20027;-72
2022/06/16 04:13:22;;;;;;;14.85;5.07;;;13.50;99.90;;;;;;4981542;28;20023;-73
2022/06/16 04:15:50;;;;;;;11.77;4.82;;;13.40;99.90;;;;;;4981564;28;20436;-72
2022/06/16 04:18:19;;;;;;;6.57;4.03;;;13.40;99.90;;;;;;4980551;28;20019;-72
2022/06/16 04:20:46;;;;;;;7.90;4.20;;;13.40;99.90;;;;;;4980731;28;20468;-72
2022/06/16 04:23:12;;;;;;;10.77;4.43;;;13.40;99.90;;;;;;4981023;28;20464;-72
2022/06/16 04:25:39;;;;;;;11.43;3.63;;;13.50;99.90;;;;;;5029480;23;20188;-75
2022/06/16 04:28:06;;;;;;;9.98;3.72;;;13.50;99.90;;;;;;4998720;28;20152;-75
2022/06/16 04:30:32;;;;;;;6.82;3.83;;;13.50;99.90;;;;;;4997908;28;20490;-75
2022/06/16 04:32:58;;;;;;;4.00;3.17;;;13.50;99.90;;;;;;4999424;28;20061;-75
2022/06/16 04:35:25;;;;;;;10.80;3.42;;;13.50;99.90;;;;;;5007883;28;20056;-75
2022/06/16 04:37:52;;;;;;;4.35;3.22;;;13.60;99.90;;;;;;5007262;28;20472;-75
2022/06/16 04:40:17;;;;;;;5.40;3.40;;;13.60;99.90;;;;;;5001725;28;20036;-76
2022/06/16 04:42:43;;;;;;;8.00;3.42;;;13.70;99.90;;;;;;4997936;28;20098;-74
2022/06/16 04:45:10;;;;;;;9.85;3.90;;;13.80;99.90;;;;;;4996414;28;20029;-74
2022/06/16 04:47:37;;;;;;;6.03;3.42;;;13.80;99.90;;;;;;4997741;28;20019;-75
2022/06/16 04:50:04;;;;;;;6.82;3.53;;;13.80;99.90;;;;;;4996476;28;20130;-75
2022/06/16 04:52:29;;;;;;;6.25;3.58;;;13.90;99.90;;;;;;4996254;28;20168;-75
2022/06/16 04:54:55;;;;;;;6.90;3.88;;;13.90;99.90;;;;;;4997506;28;20121;-74
2022/06/16 04:57:22;;;;;;;9.90;4.35;;;14.00;99.90;;;;;;4997462;28;20109;-74
2022/06/16 04:59:48;;;;;;;9.05;4.25;;;14.10;99.90;;;;;;4997202;28;20030;-74
2022/06/16 05:02:14;;;;;;;7.22;3.78;;;14.10;99.90;;;;;;4997496;28;20029;-74
2022/06/16 05:04:39;;;;;;;7.05;3.80;;;14.20;99.90;;;;;;4997215;28;20084;-74
2022/06/16 05:07:06;;;;;;;9.90;3.65;;;14.20;99.90;;;;;;4997704;28;20098;-74
2022/06/16 05:09:31;;;;;;;7.07;3.33;;;14.40;99.90;;;;;;4997603;28;20038;-74
2022/06/16 05:11:57;;;;;;;11.18;3.78;;;14.40;99.90;;;;;;5000427;28;20035;-74
2022/06/16 05:14:23;;;;;;;9.35;3.72;;;14.50;99.90;;;;;;4999813;28;20057;-74
2022/06/16 05:16:49;;;;;;;5.53;3.13;;;14.50;99.90;;;;;;5000001;28;20437;-75
2022/06/16 05:19:15;;;;;;;6.00;3.90;;;14.60;99.90;;;;;;5000502;28;20022;-74
2022/06/16 05:21:41;;;;;;;5.57;2.65;;;14.70;99.90;;;;;;4999539;28;20026;-74
2022/06/16 05:24:08;;;;;;;7.10;3.17;;;14.90;99.90;;;;;;4996170;28;20026;-74
2022/06/16 05:26:33;;;;;;;8.43;2.95;;;14.90;99.90;;;;;;4997731;28;20506;-74
2022/06/16 05:28:59;;;;;;;5.47;3.00;;;14.90;99.90;;;;;;4997502;28;20031;-74
2022/06/16 05:31:25;;;;;;;6.53;3.38;;;14.90;99.90;;;;;;4998111;28;20026;-74
2022/06/16 05:33:50;;;;;;;5.18;3.20;;;14.90;99.90;;;;;;4996354;28;20023;-74
2022/06/16 05:36:18;;;;;;;6.85;3.10;;;14.80;99.90;;;;;;4997387;28;20031;-74
2022/06/16 05:38:44;;;;;;;8.90;3.05;;;14.80;99.90;;;;;;4997187;28;20365;-74
2022/06/16 05:41:13;;;;;;;5.68;2.92;;;14.80;99.90;;;;;;4996927;28;20058;-74
2022/06/16 05:43:40;;;;;;;6.28;3.15;;;14.80;99.90;;;;;;4996733;28;20029;-74
2022/06/16 05:46:07;;;;;;;6.47;3.03;;;14.80;99.90;;;;;;4995291;28;20053;-74
2022/06/16 05:48:34;;;;;;;8.15;3.00;;;14.90;99.90;;;;;;4996714;28;20167;-74
2022/06/16 05:51:08;;;;;;;6.32;3.40;;;15.00;99.90;;;;;;4996671;28;20030;-74
2022/06/16 05:53:34;;;;;;;7.22;3.85;;;15.10;99.90;;;;;;4995124;28;20038;-73
2022/06/16 05:56:00;;;;;;;9.43;3.30;;;15.20;99.90;;;;;;4996264;28;20105;-74
2022/06/16 05:58:26;;;;;;;5.53;2.80;;;15.10;99.90;;;;;;4996384;28;20053;-74
2022/06/16 06:00:51;;;;;;;4.15;2.55;;;15.10;99.90;;;;;;4996414;28;20033;-74
2022/06/16 06:03:17;;;;;;;7.63;2.70;;;15.20;99.90;;;;;;4994718;28;20447;-74
2022/06/16 06:05:43;;;;;;;5.57;2.20;;;15.30;99.90;;;;;;4996407;28;20022;-74
2022/06/16 06:16:25;;;;;;;2.95;2.20;;;15.80;99.90;;;;;;4995693;28;20077;-74
2022/06/16 06:18:51;;;;;;;3.25;1.75;;;15.90;99.90;;;;;;4996121;28;20033;-75
2022/06/16 06:21:57;;;;;;;3.95;2.30;;;16.00;99.90;;;;;;4996122;28;20026;-75
2022/06/16 06:24:03;;;;;;;5.07;2.28;;;16.10;99.90;;;;;;4995103;28;20031;-75
2022/06/16 06:26:29;;;;;;;5.22;2.25;;;16.20;99.90;;;;;;4995774;28;20041;-74
2022/06/16 06:28:54;;;;;;;6.57;2.20;;;16.20;99.90;;;;;;4994680;28;20030;-74
2022/06/16 06:31:20;;;;;;;3.28;1.80;;;16.30;99.90;;;;;;4994703;28;20031;-74
2022/06/16 06:33:45;;;;;;;5.47;2.08;;;16.40;99.90;;;;;;4995919;28;20022;-74
2022/06/16 06:36:11;;;;;;;3.47;2.10;;;16.40;99.90;;;;;;4994587;28;20027;-74
2022/06/16 06:38:39;;;;;;;1.70;1.50;;;16.50;99.90;;;;;;4995723;28;20062;-74
2022/06/16 06:41:06;;;;;;;6.60;2.20;;;16.60;99.90;;;;;;4994690;28;20022;-74
2022/06/16 06:43:31;;;;;;;3.35;1.90;;;16.70;99.90;;;;;;4996294;28;20034;-74
2022/06/16 06:45:57;;;;;;;3.03;1.60;;;16.70;99.90;;;;;;5000944;28;20026;-73
2022/06/16 06:48:23;;;;;;;3.05;1.92;;;16.70;99.90;;;;;;4994573;28;20502;-74
2022/06/16 06:50:48;;;;;;;5.55;1.75;;;16.90;99.90;;;;;;5004994;28;20019;-74
2022/06/16 06:53:14;;;;;;;3.20;1.70;;;17.00;99.90;;;;;;5012710;28;20067;-74
2022/06/16 06:55:43;;;;;;;4.75;1.73;;;17.10;99.90;;;;;;4998066;28;20029;-74
2022/06/16 06:58:22;;;;;;;3.30;1.50;;;17.10;99.90;;;;;;4994770;28;20433;-75
2022/06/16 07:00:53;;;;;;;3.55;1.45;;;17.20;99.90;;;;;;4993548;28;20056;-75
2022/06/16 07:03:20;;;;;;;3.17;1.50;;;17.20;99.90;;;;;;4993389;28;20033;-75
2022/06/16 07:05:47;;;;;;;5.15;1.40;;;17.20;99.90;;;;;;4994785;28;20400;-74
2022/06/16 07:08:12;;;;;;;1.75;1.30;;;17.30;99.90;;;;;;4993625;28;20070;-75
2022/06/16 07:10:40;;;;;;;1.50;1.38;;;17.30;99.90;;;;;;4994857;28;20380;-74
2022/06/16 07:13:06;;;;;;;4.05;1.30;;;17.30;99.90;;;;;;4994738;28;20418;-74
2022/06/16 07:15:31;;;;;;;8.88;1.33;;;17.30;99.90;;;;;;4995285;28;20030;-74
2022/06/16 07:17:57;;;;;;;3.58;1.20;;;17.50;99.90;;;;;;4995144;28;20026;-75
2022/06/16 07:20:23;;;;;;;2.35;1.27;;;17.50;99.90;;;;;;4994896;28;20091;-75
2022/06/16 07:22:48;;;;;;;3.03;1.48;;;17.50;99.90;;;;;;4994927;28;20053;-75
2022/06/16 07:25:15;;;;;;;3.55;1.80;;;17.70;99.90;;;;;;4993001;28;20393;-74
2022/06/16 07:27:42;;;;;;;5.68;1.88;;;17.80;99.90;;;;;;4994367;28;20101;-75
2022/06/16 07:30:14;;;;;;;2.97;1.10;;;17.80;99.90;;;;;;4994818;28;20533;-74
2022/06/16 07:32:43;;;;;;;5.35;1.60;;;17.90;99.90;;;;;;4994475;28;20041;-74
2022/06/16 07:35:09;;;;;;;7.63;1.73;;;18.00;99.90;;;;;;4994610;28;20034;-74
2022/06/16 07:37:35;;;;;;;3.50;1.27;;;18.10;99.90;;;;;;4994243;28;20076;-74
2022/06/16 07:40:01;;;;;;;4.72;0.88;;;18.20;99.90;;;;;;4995912;28;20030;-74
2022/06/16 07:42:27;;;;;;;3.60;1.40;;;18.20;99.90;;;;;;4994780;28;20619;-74
2022/06/16 07:44:53;;;;;;;8.50;1.80;;;18.40;99.90;;;;;;4995097;28;20081;-75
2022/06/16 07:47:20;;;;;;;2.67;1.48;;;18.50;99.90;;;;;;4995449;28;20026;-75
2022/06/16 07:49:49;;;;;;;1.63;0.95;;;18.60;99.90;;;;;;4993387;28;20396;-75
2022/06/16 07:52:15;;;;;;;5.07;1.48;;;18.60;99.90;;;;;;4993911;28;20034;-74
2022/06/16 07:54:41;;;;;;;4.63;1.58;;;18.50;99.90;;;;;;4992596;28;20049;-75
2022/06/16 07:57:07;;;;;;;4.90;1.77;;;18.50;99.90;;;;;;4994065;28;20133;-74
2022/06/16 07:59:33;;;;;;;3.78;1.33;;;18.60;99.90;;;;;;4993924;28;20524;-74
2022/06/16 08:01:58;;;;;;;2.25;1.15;;;18.60;99.90;;;;;;4994739;28;20380;-74
2022/06/16 08:04:24;;;;;;;2.50;1.17;;;18.60;99.90;;;;;;4993989;28;20023;-75
2022/06/16 08:06:50;;;;;;;7.55;1.70;;;18.60;99.90;;;;;;4992727;28;20027;-74
2022/06/16 08:09:16;;;;;;;2.42;1.23;;;18.70;99.90;;;;;;4994462;28;20030;-74
2022/06/16 08:14:26;;;;;;;2.10;1.20;;;18.80;99.90;;;;;;4994306;28;20093;-75
2022/06/16 08:16:53;;;;;;;2.17;1.38;;;18.90;99.90;;;;;;4993886;28;20106;-75
2022/06/16 08:19:19;;;;;;;2.88;1.00;;;19.00;99.90;;;;;;4993727;28;20034;-75
2022/06/16 08:21:44;;;;;;;4.90;1.10;;;19.00;99.90;;;;;;4993833;28;20046;-74
2022/06/16 08:24:10;;;;;;;3.80;1.40;;;19.20;99.90;;;;;;4992141;28;20116;-76
2022/06/16 08:26:36;;;;;;;3.22;1.30;;;19.20;99.90;;;;;;5002295;28;20026;-76
2022/06/16 08:29:04;;;;;;;3.22;0.95;;;19.20;99.90;;;;;;4993489;28;20491;-75
2022/06/16 08:31:30;;;;;;;3.28;1.10;;;19.30;99.90;;;;;;4993406;28;20027;-76
2022/06/16 08:33:55;;;;;;;3.85;1.10;;;19.30;99.90;;;;;;4993605;28;20149;-76
2022/06/16 08:36:22;;;;;;;4.68;1.85;;;19.40;99.90;;;;;;4993183;28;20118;-75
2022/06/16 08:38:48;;;;;;;4.57;1.17;;;19.50;99.90;;;;;;4993756;28;20034;-76
2022/06/16 08:41:30;;;;;;;2.13;1.23;;;19.60;99.90;;;;;;4996644;28;20121;-75
2022/06/16 08:44:15;;;;;;;3.75;1.13;;;19.60;99.90;;;;;;4996258;28;20022;-76
2022/06/16 08:47:00;;;;;;;3.33;1.17;;;19.60;99.90;;;;;;4996526;28;20034;-75
2022/06/16 08:49:42;;;;;;;4.43;1.55;;;19.60;99.90;;;;;;4996844;28;20030;-75
2022/06/16 08:52:20;;;;;;;2.80;1.10;;;19.70;99.90;;;;;;4995947;28;20034;-75
2022/06/16 08:55:09;;;;;;;2.58;1.40;;;19.80;99.90;;;;;;4995398;28;20064;-76
2022/06/16 08:57:42;;;;;;;1.95;1.10;;;19.80;99.90;;;;;;4998245;28;20030;-75
2022/06/16 09:00:13;;;;;;;4.75;1.40;;;19.80;99.90;;;;;;4996554;28;20026;-75
2022/06/16 09:02:39;;;;;;;2.90;1.55;;;19.70;99.90;;;;;;4996502;28;20023;-75
2022/06/16 09:05:52;;;;;;;1.25;1.00;;;19.70;99.90;;;;;;4996380;28;20018;-75
2022/06/16 09:08:32;;;;;;;2.80;1.15;;;19.70;99.90;;;;;;4998025;28;20042;-74
2022/06/16 09:11:22;;;;;;;2.25;0.90;;;19.90;99.90;;;;;;4999945;28;20089;-75
2022/06/16 09:14:12;;;;;;;2.53;1.00;;;20.10;99.90;;;;;;4997755;28;20035;-75
2022/06/16 09:17:08;;;;;;;3.45;1.30;;;20.10;99.90;;;;;;4977426;28;20368;-75
2022/06/16 09:20:00;;;;;;;1.83;0.82;;;20.20;99.90;;;;;;4976907;28;20022;-75
2022/06/16 09:22:34;;;;;;;3.60;1.20;;;20.20;99.90;;;;;;4977632;28;20157;-75
2022/06/16 09:25:27;;;;;;;3.88;1.38;;;20.20;99.90;;;;;;4977671;28;20027;-75
2022/06/16 09:28:01;;;;;;;2.78;1.80;;;20.20;99.90;;;;;;4978127;28;20022;-75
2022/06/16 09:30:34;;;;;;;4.78;1.35;;;20.20;99.90;;;;;;4992965;28;20034;-75
2022/06/16 09:33:25;;;;;;;4.78;1.60;;;20.20;99.90;;;;;;4997603;28;20184;-76
2022/06/16 09:36:23;;;;;;;2.40;1.30;;;20.20;99.90;;;;;;5016111;28;20060;-75
2022/06/16 09:39:17;;;;;;;2.58;1.20;;;20.30;99.90;;;;;;5015400;28;20042;-75
2022/06/16 09:45:01;;;;;;;3.78;1.10;;;20.50;99.90;;;;;;4998769;28;20077;-75
2022/06/16 09:47:33;;;;;;;1.25;1.00;;;20.60;99.90;;;;;;4984610;28;20466;-76
2022/06/16 09:50:11;;;;;;;1.63;1.00;;;20.70;99.90;;;;;;4996771;28;20030;-75
2022/06/16 09:52:49;;;;;;;3.50;0.88;;;20.90;99.90;;;;;;4998458;28;20203;-73
2022/06/16 09:55:23;;;;;;;2.38;1.10;;;21.10;99.90;;;;;;4985527;28;20034;-76
2022/06/16 09:57:57;;;;;;;2.97;0.98;;;21.20;99.90;;;;;;4994880;28;20057;-74
2022/06/16 10:00:25;;;;;;;4.30;1.15;;;21.20;99.90;;;;;;4995984;28;20337;-74
2022/06/16 10:02:56;;;;;;;2.20;1.15;;;21.10;99.90;;;;;;4995543;28;20018;-74
2022/06/16 10:05:42;;;;;;;;;;;21.10;99.90;;;;;;4995898;28;20030;-75
2022/06/16 10:08:18;;;;;;;2.50;1.00;;;21.10;99.90;;;;;;4995389;28;20370;-75
2022/06/16 10:11:30;;;;;;;4.38;1.52;;;21.20;99.90;;;;;;4995408;28;20037;-74
2022/06/16 10:14:24;;;;;;;3.70;1.30;;;21.10;99.90;;;;;;4993992;28;20149;-75
2022/06/16 10:16:49;;;;;;;3.08;1.20;;;21.00;99.90;;;;;;4996816;28;20035;-74
2022/06/16 10:19:15;;;;;;;1.63;1.30;;;21.10;99.90;;;;;;4994446;28;20478;-76
2022/06/16 10:21:41;;;;;;;1.52;0.98;;;21.10;99.90;;;;;;4994431;28;20029;-75
2022/06/16 10:24:07;;;;;;;4.65;1.35;;;21.20;99.90;;;;;;4995122;28;20034;-74
2022/06/16 10:26:35;;;;;;;2.78;2.17;;;21.20;99.90;;;;;;5031590;22;20495;-71
2022/06/16 10:29:25;;;;;;;2.75;1.58;;;21.20;99.90;;;;;;5000102;28;20028;-71
2022/06/16 10:31:56;;;;;;;3.55;1.67;;;21.30;99.90;;;;;;4996652;28;20068;-72
2022/06/16 10:34:51;;;;;;;3.50;1.60;;;21.40;99.90;;;;;;4997569;28;20118;-72
2022/06/16 10:37:23;;;;;;;2.30;1.48;;;21.50;99.90;;;;;;5017574;28;20026;-72
2022/06/16 10:39:56;;;;;;;3.78;1.83;;;21.70;99.90;;;;;;5021085;28;20025;-72
2022/06/16 10:42:48;;;;;;;5.03;1.90;;;21.90;99.90;;;;;;5021106;28;20022;-72
2022/06/16 10:45:21;;;;;;;6.10;1.80;;;22.00;99.90;;;;;;5017359;28;20120;-74
2022/06/16 10:47:55;;;;;;;7.45;1.35;;;22.10;99.90;;;;;;5018813;28;20479;-72
2022/06/16 10:50:34;;;;;;;4.07;1.42;;;22.00;99.90;;;;;;5018776;28;20543;-71
2022/06/16 10:53:15;;;;;;;3.10;1.55;;;21.80;99.90;;;;;;5017342;28;20022;-72
2022/06/16 10:55:46;;;;;;;4.07;1.27;;;21.70;99.90;;;;;;5017606;28;20034;-71
2022/06/16 10:58:24;;;;;;;3.28;1.65;;;21.80;99.90;;;;;;5015211;28;20045;-72
2022/06/16 11:01:24;;;;;;;3.45;1.42;;;21.80;99.90;;;;;;5017337;28;20065;-72
2022/06/16 11:04:01;;;;;;;2.55;1.52;;;21.90;99.90;;;;;;5016061;28;20038;-72
2022/06/16 11:06:28;;;;;;;3.58;1.33;;;21.90;99.90;;;;;;5017878;28;20029;-72
2022/06/16 11:09:01;;;;;;;2.65;1.52;;;21.80;99.90;;;;;;5008036;28;20034;-72
2022/06/16 11:11:40;;;;;;;3.75;1.55;;;21.70;99.90;;;;;;5004491;28;20487;-72
2022/06/16 11:14:18;;;;;;;6.85;1.60;;;21.60;99.90;;;;;;5014178;28;20491;-72
2022/06/16 11:16:53;;;;;;;5.97;1.77;;;21.70;99.90;;;;;;5014677;28;20049;-72
2022/06/16 11:19:29;;;;;;;3.78;1.50;;;21.80;99.90;;;;;;5014880;28;20034;-71
2022/06/16 11:21:56;;;;;;;4.30;1.45;;;21.90;99.90;;;;;;5014628;28;20042;-72
2022/06/16 11:24:27;;;;;;;6.03;2.50;;;21.90;99.90;;;;;;5015976;28;20073;-72
2022/06/16 11:27:11;;;;;;;4.30;1.65;;;21.90;99.90;;;;;;5016426;28;20041;-72
2022/06/16 11:29:38;;;;;;;4.05;1.80;;;22.00;99.90;;;;;;5016073;28;20037;-72
2022/06/16 11:32:24;;;;;;;3.97;2.00;;;21.90;99.90;;;;;;5015834;28;20026;-72
2022/06/16 11:34:50;;;;;;;4.03;1.30;;;22.00;99.90;;;;;;5018056;28;20352;-71
2022/06/16 11:37:39;;;;;;;3.92;2.00;;;22.00;99.90;;;;;;5015507;28;20030;-72
2022/06/16 11:40:59;;;;;;;3.45;1.80;;;22.00;99.90;;;;;;5014878;28;20038;-72
2022/06/16 11:43:52;;;;;;;5.90;1.60;;;22.00;99.90;;;;;;5014808;28;20061;-72
2022/06/16 11:46:31;;;;;;;3.55;1.73;;;22.00;99.90;;;;;;5016548;28;20022;-72
2022/06/16 11:49:26;;;;;;;7.18;1.80;;;22.00;99.90;;;;;;5015081;28;20034;-72
2022/06/16 11:52:03;;;;;;;5.45;2.03;;;22.00;99.90;;;;;;5016554;28;20076;-72
2022/06/16 11:54:54;;;;;;;5.53;2.20;;;22.10;99.90;;;;;;5016162;28;20026;-72
2022/06/16 11:57:49;;;;;;;5.07;1.77;;;22.10;99.90;;;;;;5007087;28;20040;-72
2022/06/16 12:00:26;;;;;;;7.15;2.00;;;22.20;99.90;;;;;;5014109;28;20053;-72
2022/06/16 12:03:10;;;;;;;3.10;2.08;;;22.20;99.90;;;;;;5015628;28;20479;-73
2022/06/16 12:05:57;;;;;;;5.72;2.00;;;22.40;99.90;;;;;;5009549;28;20100;-72
2022/06/16 12:08:29;;;;;;;3.20;2.10;;;22.50;99.40;;;;;;5011558;28;20041;-74
2022/06/16 12:11:36;;;;;;;2.45;1.70;;;22.50;98.90;;;;;;5015927;28;20022;-72
2022/06/16 12:14:12;;;;;;;8.23;2.42;;;22.50;99.10;;;;;;5006823;28;20052;-73
2022/06/16 12:17:30;;;;;;;8.77;2.10;;;22.40;98.80;;;;;;5010082;28;20039;-73
2022/06/16 12:20:14;;;;;;;3.88;2.08;;;22.30;99.40;;;;;;5003452;28;20025;-74
2022/06/16 12:22:52;;;;;;;5.88;2.40;;;22.40;99.20;;;;;;5003988;28;20018;-74
2022/06/16 12:25:24;;;;;;;8.23;2.72;;;22.40;98.90;;;;;;5015492;28;20065;-73
2022/06/16 12:28:06;;;;;;;7.10;2.08;;;22.50;98.10;;;;;;5035385;28;20030;-72
2022/06/16 12:30:40;;;;;;;4.47;2.55;;;22.50;97.90;;;;;;5021517;28;20084;-72
2022/06/16 12:33:25;;;;;;;4.28;1.92;;;22.70;97.60;;;;;;5021062;28;20032;-72
2022/06/16 12:36:06;;;;;;;3.17;2.10;;;22.80;96.80;;;;;;5019605;28;20091;-72
2022/06/16 12:38:58;;;;;;;5.95;2.28;;;22.60;96.90;;;;;;5020880;28;20026;-72
2022/06/16 12:41:30;;;;;;;5.10;1.90;;;22.50;97.10;;;;;;5018511;28;20455;-73
2022/06/16 12:44:01;;;;;;;6.82;2.08;;;22.50;97.20;;;;;;5020482;28;20044;-73
2022/06/16 12:46:40;;;;;;;;;;;22.30;97.00;;;;;;5022575;28;20101;-72
2022/06/16 12:49:15;;;;;;;3.92;1.58;;;22.30;96.20;;;;;;5020793;28;19910;-73
2022/06/16 12:51:55;;;;;;;5.03;1.80;;;22.30;96.10;;;;;;5002176;28;20467;-74
2022/06/16 12:54:31;;;;;;;5.63;1.85;;;22.30;96.40;;;;;;5014179;28;20022;-74
2022/06/16 12:57:16;;;;;;;4.35;2.33;;;22.40;95.50;;;;;;5018933;28;20112;-73
2022/06/16 12:59:47;;;;;;;3.05;1.80;;;22.50;94.80;;;;;;5021093;28;20426;-73
2022/06/16 13:02:15;;;;;;;;;;;22.50;94.80;;;;;;5009947;28;20017;-73
2022/06/16 13:04:42;;;;;;;9.95;1.88;;;22.60;94.70;;;;;;5012984;28;19964;-73
2022/06/16 13:07:19;;;;;;;3.35;1.75;;;22.70;94.40;;;;;;5010036;28;20033;-73
2022/06/16 13:09:45;;;;;;;2.95;1.95;;;22.70;94.40;;;;;;5010742;28;20097;-75
2022/06/16 13:12:43;;;;;;;3.50;1.67;;;22.80;93.40;;;;;;5010176;28;20021;-72
2022/06/16 13:15:21;;;;;;;4.00;1.77;;;22.90;93.30;;;;;;5010459;28;20034;-72
2022/06/16 13:17:52;;;;;;;3.55;1.50;;;22.90;93.30;;;;;;5008240;28;20026;-72
2022/06/16 13:20:19;;;;;;;;;;;22.90;93.00;;;;;;5004960;28;20022;-71
2022/06/16 13:22:55;;;;;;;6.22;2.08;;;22.90;93.10;;;;;;5010221;28;20302;-72
2022/06/16 13:25:48;;;;;;;4.22;2.20;;;23.10;93.00;;;;;;5007649;28;20372;-70
2022/06/16 13:28:33;;;;;;;3.40;2.17;;;23.10;92.60;;;;;;5007418;28;20031;-71
2022/06/16 13:31:23;;;;;;;3.65;2.08;;;23.10;92.40;;;;;;5005187;28;20050;-71
2022/06/16 13:33:58;;;;;;;3.67;1.92;;;23.00;92.30;;;;;;5018819;28;20083;-72
2022/06/16 13:36:33;;;;;;;8.30;2.90;;;23.00;92.30;;;;;;5021493;28;20026;-72
2022/06/16 13:39:05;;;;;;;6.15;2.40;;;22.90;92.70;;;;;;5026167;28;20033;-73
2022/06/16 13:42:00;;;;;;;8.23;2.83;;;22.90;92.60;;;;;;5024303;28;20077;-74
2022/06/16 13:44:29;;;;;;;8.48;2.85;;;23.00;92.70;;;;;;5018606;28;20026;-72